createdAt,value
2017-07-16T00:00:06.163Z,19.20
2017-07-16T00:02:32.206Z,19.20
2017-07-16T00:04:58.292Z,19.20
2017-07-16T00:07:24.354Z,19.10
2017-07-16T00:09:50.443Z,19.10
2017-07-16T00:12:17.288Z,19.00
2017-07-16T00:14:43.351Z,19.00
2017-07-16T00:17:09.440Z,19.00
2017-07-16T00:19:35.492Z,19.00
2017-07-16T00:22:01.534Z,19.00
2017-07-16T00:24:27.587Z,19.10
2017-07-16T00:26:53.664Z,19.10
2017-07-16T00:29:19.694Z,19.10
2017-07-16T00:31:45.751Z,19.10
2017-07-16T00:34:11.815Z,19.10
2017-07-16T00:36:37.917Z,19.10
2017-07-16T00:39:03.987Z,19.10
2017-07-16T00:41:30.044Z,19.00
2017-07-16T00:43:56.844Z,19.00
2017-07-16T00:46:23.883Z,19.00
2017-07-16T00:48:49.968Z,19.10
2017-07-16T00:51:16.114Z,19.10
2017-07-16T00:53:42.156Z,19.10
2017-07-16T00:56:08.243Z,19.20
2017-07-16T00:58:34.329Z,19.20
2017-07-16T01:01:00.428Z,19.30
2017-07-16T01:03:26.464Z,19.30
2017-07-16T01:05:53.285Z,19.30
2017-07-16T01:08:19.319Z,19.20
2017-07-16T01:10:46.190Z,19.30
2017-07-16T01:13:12.999Z,19.30
2017-07-16T01:15:39.144Z,19.30
2017-07-16T01:18:05.206Z,19.40
2017-07-16T01:20:31.264Z,19.30
2017-07-16T01:22:57.355Z,19.30
2017-07-16T01:25:45.528Z,19.30
2017-07-16T01:28:11.611Z,19.20
2017-07-16T01:30:38.398Z,19.00
2017-07-16T01:33:04.530Z,19.00
2017-07-16T01:35:32.752Z,19.00
2017-07-16T01:37:58.845Z,19.10
2017-07-16T01:40:24.896Z,19.00
2017-07-16T01:42:51.029Z,19.00
2017-07-16T01:45:17.090Z,19.10
2017-07-16T01:47:43.187Z,19.20
2017-07-16T01:50:09.300Z,19.30
2017-07-16T01:52:35.419Z,19.30
2017-07-16T01:55:01.529Z,19.40
2017-07-16T01:57:28.366Z,19.30
2017-07-16T01:59:54.404Z,19.30
2017-07-16T02:02:21.220Z,19.20
2017-07-16T02:04:47.280Z,19.20
2017-07-16T02:07:13.331Z,19.20
2017-07-16T02:09:39.394Z,19.30
2017-07-16T02:12:05.445Z,19.30
2017-07-16T02:14:31.503Z,19.40
2017-07-16T02:16:58.275Z,19.40
2017-07-16T02:19:24.359Z,19.40
2017-07-16T02:21:50.456Z,19.40
2017-07-16T02:24:16.518Z,19.50
2017-07-16T02:26:42.559Z,19.50
2017-07-16T02:29:09.403Z,19.50
2017-07-16T02:31:36.188Z,19.50
2017-07-16T02:34:02.301Z,19.40
2017-07-16T02:36:28.352Z,19.50
2017-07-16T02:38:54.587Z,19.50
2017-07-16T02:41:20.686Z,19.50
2017-07-16T02:43:46.724Z,19.50
2017-07-16T02:46:12.761Z,19.50
2017-07-16T02:48:38.854Z,19.60
2017-07-16T02:51:05.052Z,19.60
2017-07-16T02:53:31.092Z,19.60
2017-07-16T02:55:57.144Z,19.60
2017-07-16T02:58:23.201Z,19.60
2017-07-16T03:00:49.249Z,19.50
2017-07-16T03:03:15.341Z,19.60
2017-07-16T03:05:41.440Z,19.50
2017-07-16T03:08:07.496Z,19.40
2017-07-16T03:10:33.524Z,19.00
2017-07-16T03:13:00.439Z,19.10
2017-07-16T03:15:26.600Z,19.20
2017-07-16T03:17:52.667Z,18.90
2017-07-16T03:20:19.456Z,18.90
2017-07-16T03:22:45.527Z,18.90
2017-07-16T03:25:24.763Z,19.10
2017-07-16T03:27:50.848Z,19.10
2017-07-16T03:30:16.971Z,19.10
2017-07-16T03:32:43.042Z,19.20
2017-07-16T03:35:09.144Z,19.10
2017-07-16T03:37:35.280Z,19.10
2017-07-16T03:40:01.376Z,19.20
2017-07-16T03:42:27.423Z,19.20
2017-07-16T03:44:53.512Z,19.20
2017-07-16T03:47:19.647Z,19.20
2017-07-16T03:49:45.685Z,19.30
2017-07-16T03:52:12.481Z,19.30
2017-07-16T03:54:38.532Z,19.30
2017-07-16T03:57:04.599Z,19.30
2017-07-16T03:59:30.709Z,19.30
2017-07-16T04:01:56.763Z,19.30
2017-07-16T04:04:22.817Z,19.30
2017-07-16T04:06:48.859Z,19.30
2017-07-16T04:09:14.940Z,18.90
2017-07-16T04:11:41.017Z,18.90
2017-07-16T04:14:07.088Z,18.80
2017-07-16T04:16:33.884Z,18.50
2017-07-16T04:18:59.978Z,18.50
2017-07-16T04:21:26.801Z,18.60
2017-07-16T04:23:52.852Z,18.60
2017-07-16T04:26:19.712Z,18.90
2017-07-16T04:28:45.769Z,18.90
2017-07-16T04:31:11.837Z,19.10
2017-07-16T04:33:37.879Z,19.10
2017-07-16T04:36:04.660Z,19.30
2017-07-16T04:38:30.709Z,19.30
2017-07-16T04:40:56.757Z,19.30
2017-07-16T04:43:22.804Z,19.40
2017-07-16T04:45:48.834Z,19.40
2017-07-16T04:48:14.886Z,19.50
2017-07-16T04:50:40.937Z,19.60
2017-07-16T04:53:06.988Z,19.60
2017-07-16T04:55:33.128Z,19.60
2017-07-16T04:57:59.245Z,19.60
2017-07-16T05:00:25.259Z,19.70
2017-07-16T05:02:51.292Z,19.70
2017-07-16T05:05:17.380Z,19.70
2017-07-16T05:07:43.430Z,19.70
2017-07-16T05:10:10.197Z,19.60
2017-07-16T05:12:36.230Z,19.60
2017-07-16T05:15:02.268Z,19.70
2017-07-16T05:17:28.338Z,19.70
2017-07-16T05:19:54.386Z,19.70
2017-07-16T05:22:20.408Z,19.70
2017-07-16T05:24:46.483Z,19.80
2017-07-16T05:27:12.620Z,19.90
2017-07-16T05:29:38.672Z,19.90
2017-07-16T05:32:04.749Z,20.00
2017-07-16T05:34:30.809Z,19.90
2017-07-16T05:36:56.839Z,19.90
2017-07-16T05:39:22.913Z,19.90
2017-07-16T05:41:48.974Z,19.80
2017-07-16T05:44:15.021Z,19.70
2017-07-16T05:46:41.059Z,19.70
2017-07-16T05:49:07.083Z,19.70
2017-07-16T05:51:33.128Z,19.90
2017-07-16T05:53:59.180Z,19.70
2017-07-16T05:56:25.233Z,19.80
2017-07-16T05:58:51.296Z,20.00
2017-07-16T06:01:17.387Z,20.10
2017-07-16T06:03:54.197Z,20.10
2017-07-16T06:06:20.250Z,20.20
2017-07-16T06:08:46.288Z,20.20
2017-07-16T06:11:12.340Z,19.90
2017-07-16T06:13:38.371Z,20.00
2017-07-16T06:16:04.494Z,20.00
2017-07-16T06:18:30.535Z,20.00
2017-07-16T06:20:56.560Z,20.10
2017-07-16T06:23:22.596Z,19.80
2017-07-16T06:25:48.639Z,19.80
2017-07-16T06:28:15.428Z,19.10
2017-07-16T06:30:41.482Z,19.10
2017-07-16T06:33:07.559Z,19.00
2017-07-16T06:35:33.656Z,18.90
2017-07-16T06:37:59.739Z,19.10
2017-07-16T06:40:25.808Z,19.20
2017-07-16T06:42:51.895Z,19.30
2017-07-16T06:45:17.964Z,19.40
2017-07-16T06:47:44.052Z,19.40
2017-07-16T06:50:10.141Z,19.50
2017-07-16T06:52:36.171Z,19.40
2017-07-16T06:55:02.211Z,19.30
2017-07-16T06:57:28.280Z,19.50
2017-07-16T06:59:54.324Z,19.70
2017-07-16T07:02:20.392Z,19.80
2017-07-16T07:04:46.424Z,19.70
2017-07-16T07:07:12.475Z,19.90
2017-07-16T07:09:39.494Z,20.40
2017-07-16T07:12:05.551Z,20.40
2017-07-16T07:14:31.600Z,20.60
2017-07-16T07:16:57.668Z,20.80
2017-07-16T07:19:23.749Z,21.00
2017-07-16T07:21:49.832Z,21.10
2017-07-16T07:24:16.577Z,21.30
2017-07-16T07:26:42.655Z,21.40
2017-07-16T07:29:08.725Z,21.40
2017-07-16T07:31:34.760Z,21.50
2017-07-16T07:34:00.829Z,21.40
2017-07-16T07:36:26.857Z,21.60
2017-07-16T07:38:52.936Z,21.60
2017-07-16T07:41:19.009Z,21.70
2017-07-16T07:43:45.095Z,21.90
2017-07-16T07:46:11.896Z,22.20
2017-07-16T07:48:37.952Z,22.10
2017-07-16T07:51:04.761Z,22.50
2017-07-16T07:53:30.831Z,22.50
2017-07-16T07:55:56.860Z,22.80
2017-07-16T07:58:23.729Z,22.80
2017-07-16T08:00:49.850Z,22.80
2017-07-16T08:03:16.104Z,22.60
2017-07-16T08:05:42.197Z,22.50
2017-07-16T08:08:08.971Z,22.80
2017-07-16T08:10:35.013Z,22.80
2017-07-16T08:13:01.068Z,22.80
2017-07-16T08:15:35.036Z,22.90
2017-07-16T08:18:01.087Z,22.60
2017-07-16T08:20:27.128Z,22.60
2017-07-16T08:22:53.199Z,22.80
2017-07-16T08:25:19.988Z,22.90
2017-07-16T08:27:46.040Z,22.90
2017-07-16T08:30:12.092Z,22.70
2017-07-16T08:32:38.121Z,22.50
2017-07-16T08:35:04.900Z,22.70
2017-07-16T08:37:30.970Z,22.70
2017-07-16T08:39:56.992Z,22.90
2017-07-16T08:42:23.049Z,23.00
2017-07-16T08:44:49.120Z,23.20
2017-07-16T08:47:15.257Z,23.00
2017-07-16T08:49:41.282Z,22.90
2017-07-16T08:52:07.300Z,22.40
2017-07-16T08:54:37.927Z,22.50
2017-07-16T08:57:04.741Z,22.30
2017-07-16T08:59:30.815Z,22.30
2017-07-16T09:01:57.712Z,22.30
2017-07-16T09:04:23.779Z,22.20
2017-07-16T09:06:50.591Z,22.40
2017-07-16T09:09:16.672Z,22.40
2017-07-16T09:11:42.713Z,22.60
2017-07-16T09:14:08.806Z,22.80
2017-07-16T09:16:35.705Z,22.70
2017-07-16T09:19:01.803Z,22.70
2017-07-16T09:21:28.582Z,23.00
2017-07-16T09:23:55.274Z,23.00
2017-07-16T09:26:21.460Z,23.20
2017-07-16T09:28:47.530Z,23.20
2017-07-16T09:31:13.572Z,23.20
2017-07-16T09:33:39.721Z,23.20
2017-07-16T09:36:06.540Z,23.60
2017-07-16T09:38:32.757Z,23.60
2017-07-16T09:40:58.974Z,23.90
2017-07-16T09:43:25.076Z,24.10
2017-07-16T09:45:51.879Z,24.50
2017-07-16T09:48:17.955Z,24.50
2017-07-16T09:50:44.036Z,24.60
2017-07-16T09:53:10.077Z,24.70
2017-07-16T09:55:36.117Z,24.80
2017-07-16T09:58:02.159Z,24.80
2017-07-16T10:00:28.941Z,24.30
2017-07-16T10:02:55.052Z,24.30
2017-07-16T10:05:22.393Z,24.60
2017-07-16T10:07:49.260Z,24.40
2017-07-16T10:10:15.283Z,24.40
2017-07-16T10:12:42.079Z,24.60
2017-07-16T10:15:19.468Z,24.50
2017-07-16T10:17:45.515Z,24.70
2017-07-16T10:20:17.055Z,24.70
2017-07-16T10:22:43.382Z,24.50
2017-07-16T10:25:15.642Z,24.70
2017-07-16T10:27:41.826Z,25.00
2017-07-16T10:30:14.296Z,25.40
2017-07-16T10:32:40.517Z,25.90
2017-07-16T10:35:09.834Z,25.80
2017-07-16T10:37:49.944Z,25.80
2017-07-16T10:40:19.414Z,25.90
2017-07-16T10:42:46.275Z,26.30
2017-07-16T10:45:12.404Z,26.20
2017-07-16T10:47:43.416Z,26.30
2017-07-16T10:50:10.493Z,26.30
2017-07-16T10:52:37.274Z,26.30
2017-07-16T10:55:07.288Z,26.20
2017-07-16T10:57:35.468Z,26.10
2017-07-16T11:02:54.409Z,26.10
2017-07-16T11:05:45.823Z,26.00
2017-07-16T11:08:12.592Z,26.00
2017-07-16T11:10:56.832Z,26.00
2017-07-16T11:13:33.313Z,26.10
2017-07-16T11:16:14.576Z,25.90
2017-07-16T11:18:54.133Z,25.90
2017-07-16T11:21:23.513Z,25.60
2017-07-16T11:23:59.935Z,25.70
2017-07-16T11:26:33.176Z,25.30
2017-07-16T11:29:14.489Z,25.70
2017-07-16T11:31:44.068Z,25.90
2017-07-16T11:34:27.390Z,26.20
2017-07-16T11:36:59.884Z,25.90
2017-07-16T11:39:36.237Z,25.70
2017-07-16T11:42:02.380Z,25.90
2017-07-16T11:44:45.792Z,25.80
2017-07-16T11:47:11.919Z,25.40
2017-07-16T11:49:38.024Z,25.30
2017-07-16T11:52:04.994Z,25.70
2017-07-16T11:54:31.105Z,25.70
2017-07-16T11:56:59.902Z,26.00
2017-07-16T11:59:29.947Z,26.00
2017-07-16T12:02:01.190Z,25.90
2017-07-16T12:04:27.297Z,25.90
2017-07-16T12:06:56.933Z,26.10
2017-07-16T12:09:23.065Z,26.50
2017-07-16T12:11:49.116Z,26.80
2017-07-16T12:14:16.249Z,27.30
2017-07-16T12:16:43.364Z,27.80
2017-07-16T12:19:13.204Z,27.90
2017-07-16T12:21:47.400Z,27.80
2017-07-16T12:24:13.581Z,27.80
2017-07-16T12:26:41.737Z,28.30
2017-07-16T12:29:08.588Z,29.10
2017-07-16T12:31:42.797Z,29.00
2017-07-16T12:34:09.651Z,28.20
2017-07-16T12:36:35.773Z,28.20
2017-07-16T12:39:06.034Z,27.90
2017-07-16T12:41:33.152Z,27.80
2017-07-16T12:44:01.020Z,27.60
2017-07-16T12:46:27.913Z,27.70
2017-07-16T12:48:53.998Z,27.70
2017-07-16T12:51:20.848Z,26.60
2017-07-16T12:53:48.718Z,26.50
2017-07-16T12:56:26.631Z,26.70
2017-07-16T12:58:54.504Z,26.40
2017-07-16T13:01:25.133Z,26.40
2017-07-16T13:03:59.373Z,26.60
2017-07-16T13:06:30.736Z,26.70
2017-07-16T13:08:56.832Z,26.90
2017-07-16T13:11:27.369Z,27.10
2017-07-16T13:14:02.500Z,27.60
2017-07-16T13:16:37.041Z,27.70
2017-07-16T13:19:11.337Z,27.70
2017-07-16T13:21:44.563Z,27.00
2017-07-16T13:24:13.927Z,27.00
2017-07-16T13:26:48.171Z,27.20
2017-07-16T13:29:20.420Z,27.20
2017-07-16T13:31:59.784Z,27.40
2017-07-16T13:34:25.821Z,27.40
2017-07-16T13:36:51.927Z,27.20
2017-07-16T13:39:21.980Z,27.00
2017-07-16T13:41:54.313Z,27.00
2017-07-16T13:44:34.684Z,26.50
2017-07-16T13:47:02.772Z,26.50
2017-07-16T13:49:42.218Z,26.50
2017-07-16T13:52:10.440Z,26.40
2017-07-16T13:54:36.614Z,26.60
2017-07-16T13:57:16.054Z,26.40
2017-07-16T13:59:44.274Z,26.30
2017-07-16T14:02:13.857Z,26.60
2017-07-16T14:04:51.213Z,27.10
2017-07-16T14:07:20.129Z,27.60
2017-07-16T14:09:57.100Z,27.60
2017-07-16T14:12:28.492Z,27.70
2017-07-16T14:14:54.581Z,28.00
2017-07-16T14:17:24.411Z,28.10
2017-07-16T14:19:57.315Z,27.80
2017-07-16T14:25:27.336Z,28.00
2017-07-16T14:28:04.925Z,28.00
2017-07-16T14:30:55.289Z,28.20
2017-07-16T14:33:28.821Z,28.40
2017-07-16T14:35:56.984Z,28.50
2017-07-16T14:38:38.614Z,28.60
2017-07-16T14:41:07.961Z,28.40
2017-07-16T14:43:40.208Z,28.30
2017-07-16T14:46:15.482Z,28.80
2017-07-16T14:48:51.809Z,28.80
2017-07-16T14:51:17.984Z,28.50
2017-07-16T14:53:52.475Z,28.20
2017-07-16T14:56:43.085Z,28.10
2017-07-16T14:59:15.872Z,28.20
2017-07-16T15:01:47.140Z,27.90
2017-07-16T15:04:20.420Z,27.80
2017-07-16T15:06:49.971Z,27.60
2017-07-16T15:09:26.204Z,27.50
2017-07-16T15:11:54.393Z,27.50
2017-07-16T15:14:20.525Z,27.50
2017-07-16T15:16:47.751Z,27.40
2017-07-16T15:19:26.348Z,27.40
2017-07-16T15:21:57.697Z,27.10
2017-07-16T15:24:24.886Z,27.10
2017-07-16T15:26:56.316Z,27.10
2017-07-16T15:29:22.456Z,27.20
2017-07-16T15:32:02.921Z,27.10
2017-07-16T15:34:35.392Z,27.10
2017-07-16T15:37:08.763Z,27.30
2017-07-16T15:39:50.304Z,27.30
2017-07-16T15:42:26.805Z,27.30
2017-07-16T15:45:03.144Z,27.30
2017-07-16T15:47:39.677Z,27.30
2017-07-16T15:50:30.048Z,27.20
2017-07-16T15:52:58.116Z,27.10
2017-07-16T15:55:36.971Z,27.00
2017-07-16T15:58:04.176Z,27.10
2017-07-16T16:00:33.791Z,27.20
2017-07-16T16:03:00.566Z,27.20
2017-07-16T16:05:30.516Z,27.20
2017-07-16T16:07:56.652Z,27.20
2017-07-16T16:10:23.827Z,27.40
2017-07-16T16:12:51.196Z,27.50
2017-07-16T16:15:24.463Z,27.40
2017-07-16T16:17:50.583Z,27.40
2017-07-16T16:20:17.748Z,27.30
2017-07-16T16:22:43.857Z,27.40
2017-07-16T16:25:13.153Z,27.20
2017-07-16T16:27:39.214Z,27.20
2017-07-16T16:30:08.668Z,27.20
2017-07-16T16:32:35.883Z,27.10
2017-07-16T16:35:21.968Z,27.10
2017-07-16T16:37:48.161Z,27.00
2017-07-16T16:40:17.796Z,26.60
2017-07-16T16:45:47.959Z,26.40
2017-07-16T16:48:26.325Z,26.40
2017-07-16T16:50:55.779Z,26.40
2017-07-16T16:53:27.004Z,26.50
2017-07-16T16:56:10.462Z,26.50
2017-07-16T16:58:37.265Z,26.50
2017-07-16T17:01:08.170Z,26.50
2017-07-16T17:03:47.537Z,26.50
2017-07-16T17:06:18.966Z,26.50
2017-07-16T17:09:02.320Z,26.40
2017-07-16T17:11:28.431Z,26.30
2017-07-16T17:14:08.267Z,26.20
2017-07-16T17:16:34.406Z,26.20
2017-07-16T17:19:11.171Z,26.30
2017-07-16T17:21:38.379Z,26.30
2017-07-16T17:24:25.950Z,26.40
2017-07-16T17:26:58.427Z,26.50
2017-07-16T17:29:24.480Z,26.50
2017-07-16T17:32:02.191Z,26.50
2017-07-16T17:34:28.277Z,26.60
2017-07-16T17:37:07.549Z,26.60
2017-07-16T17:39:33.652Z,26.60
2017-07-16T17:42:17.440Z,26.60
2017-07-16T17:45:01.010Z,26.50
2017-07-16T17:47:37.284Z,26.60
2017-07-16T17:50:08.731Z,26.60
2017-07-16T17:52:37.925Z,26.70
2017-07-16T17:55:04.086Z,26.70
2017-07-16T17:57:30.211Z,26.80
2017-07-16T18:00:01.919Z,26.80
2017-07-16T18:05:21.722Z,26.40
2017-07-16T18:07:51.961Z,26.50
2017-07-16T18:10:18.024Z,26.50
2017-07-16T18:12:45.165Z,26.50
2017-07-16T18:15:14.905Z,26.60
2017-07-16T18:17:47.210Z,26.60
2017-07-16T18:20:14.013Z,26.60
2017-07-16T18:22:40.114Z,26.60
2017-07-16T18:25:08.190Z,26.70
2017-07-16T18:27:47.413Z,26.60
2017-07-16T18:30:20.838Z,26.60
2017-07-16T18:32:50.132Z,26.60
2017-07-16T18:35:17.403Z,26.60
2017-07-16T18:38:00.760Z,26.60
2017-07-16T18:40:26.950Z,26.60
2017-07-16T18:42:56.545Z,26.50
2017-07-16T18:45:22.939Z,26.50
2017-07-16T18:47:49.071Z,26.50
2017-07-16T18:50:15.162Z,26.50
2017-07-16T18:52:43.359Z,26.40
2017-07-16T18:55:09.556Z,26.20
2017-07-16T18:57:42.132Z,26.10
2017-07-16T19:00:09.384Z,26.00
2017-07-16T19:02:35.548Z,26.00
2017-07-16T19:05:01.705Z,26.00
2017-07-16T19:07:27.987Z,26.00
2017-07-16T19:09:58.443Z,26.00
2017-07-16T19:12:31.496Z,26.00
2017-07-16T19:14:58.366Z,26.00
2017-07-16T19:17:30.255Z,26.00
2017-07-16T19:19:56.523Z,26.00
2017-07-16T19:22:28.025Z,26.00
2017-07-16T19:24:55.265Z,26.00
2017-07-16T19:27:22.417Z,25.90
2017-07-16T19:29:50.540Z,25.90
2017-07-16T19:32:17.191Z,25.90
2017-07-16T19:34:43.267Z,25.90
2017-07-16T19:37:24.491Z,25.90
2017-07-16T19:39:55.119Z,25.80
2017-07-16T19:42:31.355Z,25.80
2017-07-16T19:44:57.464Z,25.80
2017-07-16T19:47:28.017Z,25.70
2017-07-16T19:50:15.024Z,25.70
2017-07-16T19:52:51.580Z,25.70
2017-07-16T19:55:18.814Z,25.70
2017-07-16T19:57:56.304Z,25.70
2017-07-16T20:00:31.706Z,25.60
2017-07-16T20:03:05.186Z,25.60
2017-07-16T20:05:39.405Z,25.60
2017-07-16T20:08:11.887Z,25.60
2017-07-16T20:10:41.291Z,25.50
2017-07-16T20:13:22.357Z,25.50
2017-07-16T20:15:48.445Z,25.60
2017-07-16T20:18:16.789Z,25.40
2017-07-16T20:20:42.835Z,25.40
2017-07-16T20:23:35.757Z,25.30
2017-07-16T20:26:12.515Z,25.30
2017-07-16T20:28:42.206Z,25.30
2017-07-16T20:31:21.406Z,25.20
2017-07-16T20:33:47.600Z,25.20
2017-07-16T20:36:23.957Z,25.00
2017-07-16T20:38:54.496Z,25.00
2017-07-16T20:41:31.563Z,25.00
2017-07-16T20:44:04.934Z,24.90
2017-07-16T20:46:31.121Z,24.80
2017-07-16T20:48:58.259Z,24.80
2017-07-16T20:51:32.906Z,24.80
2017-07-16T20:54:07.182Z,24.80
2017-07-16T20:59:32.125Z,24.50
2017-07-16T21:02:09.224Z,24.50
2017-07-16T21:04:42.628Z,24.40
2017-07-16T21:07:14.310Z,24.50
2017-07-16T21:09:47.460Z,24.50
2017-07-16T21:12:19.872Z,24.40
2017-07-16T21:14:46.857Z,24.40
2017-07-16T21:17:15.163Z,24.40
2017-07-16T21:19:47.821Z,24.30
2017-07-16T21:22:20.296Z,24.30
2017-07-16T21:24:57.341Z,24.30
2017-07-16T21:27:31.832Z,24.20
2017-07-16T21:30:22.073Z,24.20
2017-07-16T21:32:56.626Z,24.20
2017-07-16T21:35:33.092Z,24.10
2017-07-16T21:38:05.364Z,24.10
2017-07-16T21:40:37.639Z,24.10
2017-07-16T21:43:14.205Z,24.10
2017-07-16T21:45:50.478Z,24.10
2017-07-16T21:48:17.706Z,24.10
2017-07-16T21:50:54.280Z,24.10
2017-07-16T21:53:20.443Z,24.20
2017-07-16T21:55:50.125Z,24.10
2017-07-16T21:58:23.109Z,24.00
2017-07-16T22:00:57.575Z,23.80
2017-07-16T22:03:24.667Z,23.70
2017-07-16T22:05:51.488Z,23.60
2017-07-16T22:08:17.549Z,23.60
2017-07-16T22:10:43.653Z,23.50
2017-07-16T22:13:09.802Z,23.50
2017-07-16T22:15:36.612Z,23.50
2017-07-16T22:18:02.721Z,23.50
2017-07-16T22:20:28.844Z,23.50
2017-07-16T22:22:54.949Z,23.60
2017-07-16T22:25:32.606Z,23.70
2017-07-16T22:27:58.925Z,23.60
2017-07-16T22:30:24.998Z,23.70
2017-07-16T22:32:52.088Z,23.70
2017-07-16T22:35:18.423Z,23.70
2017-07-16T22:37:44.633Z,23.70
2017-07-16T22:40:11.500Z,23.70
2017-07-16T22:42:37.539Z,23.70
2017-07-16T22:45:09.932Z,23.60
2017-07-16T22:47:36.299Z,23.60
2017-07-16T22:50:02.520Z,23.60
2017-07-16T22:52:28.635Z,23.60
2017-07-16T22:54:54.754Z,23.50
2017-07-16T22:57:20.867Z,23.50
2017-07-16T22:59:46.918Z,23.60
2017-07-16T23:02:12.973Z,23.60
2017-07-16T23:04:39.176Z,23.60
2017-07-16T23:07:05.311Z,23.70
2017-07-16T23:09:31.393Z,23.70
2017-07-16T23:11:57.516Z,23.70
2017-07-16T23:14:23.596Z,23.70
2017-07-16T23:16:49.709Z,23.70
2017-07-16T23:19:15.895Z,23.70
2017-07-16T23:21:41.933Z,23.60
2017-07-16T23:24:08.094Z,23.60
2017-07-16T23:26:34.888Z,23.60
2017-07-16T23:29:01.107Z,23.60
2017-07-16T23:31:27.255Z,23.60
2017-07-16T23:33:53.332Z,23.60
2017-07-16T23:36:19.440Z,23.70
2017-07-16T23:38:45.622Z,23.60
2017-07-16T23:41:11.744Z,23.60
2017-07-16T23:43:38.538Z,23.40
2017-07-16T23:46:04.638Z,23.40
2017-07-16T23:48:30.817Z,23.40
2017-07-16T23:50:57.003Z,23.30
2017-07-16T23:53:23.098Z,23.20
2017-07-16T23:55:49.246Z,23.20
2017-07-16T23:58:15.349Z,23.30
